sensor_id;sensor_type;location;lat;lon;timestamp;temperature;humidity
46508;DHT22;32223;53.654;10.014;2022-12-18T00:01:36;-5.40;99.90
46508;DHT22;32223;53.654;10.014;2022-12-18T00:04:06;-5.40;99.90
46508;DHT22;32223;53.654;10.014;2022-12-18T00:06:32;-5.40;99.90
46508;DHT22;32223;53.654;10.014;2022-12-18T00:08:59;-5.40;99.90
46508;DHT22;32223;53.654;10.014;2022-12-18T00:11:28;-5.40;99.90
46508;DHT22;32223;53.654;10.014;2022-12-18T00:13:55;-5.30;99.90
46508;DHT22;32223;53.654;10.014;2022-12-18T00:16:23;-5.30;99.90
46508;DHT22;32223;53.654;10.014;2022-12-18T00:18:52;-5.40;99.90
46508;DHT22;32223;53.654;10.014;2022-12-18T00:21:19;-5.40;99.90
46508;DHT22;32223;53.654;10.014;2022-12-18T00:23:45;-5.40;99.90
46508;DHT22;32223;53.654;10.014;2022-12-18T00:26:13;-5.40;99.90
46508;DHT22;32223;53.654;10.014;2022-12-18T00:28:43;-5.40;99.90
46508;DHT22;32223;53.654;10.014;2022-12-18T00:31:16;-5.40;99.90
46508;DHT22;32223;53.654;10.014;2022-12-18T00:33:42;-5.50;99.90
46508;DHT22;32223;53.654;10.014;2022-12-18T00:36:16;-5.50;99.90
46508;DHT22;32223;53.654;10.014;2022-12-18T00:38:42;-5.60;99.90
46508;DHT22;32223;53.654;10.014;2022-12-18T00:41:09;-5.60;99.90
46508;DHT22;32223;53.654;10.014;2022-12-18T00:43:37;-5.60;99.90
46508;DHT22;32223;53.654;10.014;2022-12-18T00:46:03;-5.60;99.90
46508;DHT22;32223;53.654;10.014;2022-12-18T00:48:29;-5.70;99.90
46508;DHT22;32223;53.654;10.014;2022-12-18T00:50:55;-5.70;99.90
46508;DHT22;32223;53.654;10.014;2022-12-18T00:53:21;-5.70;99.90
46508;DHT22;32223;53.654;10.014;2022-12-18T00:55:46;-5.70;99.90
46508;DHT22;32223;53.654;10.014;2022-12-18T00:58:15;-5.70;99.90
46508;DHT22;32223;53.654;10.014;2022-12-18T01:00:41;-5.70;99.90
46508;DHT22;32223;53.654;10.014;2022-12-18T01:03:07;-5.70;99.90
46508;DHT22;32223;53.654;10.014;2022-12-18T01:05:32;-5.80;99.90
46508;DHT22;32223;53.654;10.014;2022-12-18T01:07:58;-5.80;99.90
46508;DHT22;32223;53.654;10.014;2022-12-18T01:10:25;-5.80;99.90
46508;DHT22;32223;53.654;10.014;2022-12-18T01:12:52;-5.80;99.90
46508;DHT22;32223;53.654;10.014;2022-12-18T01:15:18;-5.80;99.90
46508;DHT22;32223;53.654;10.014;2022-12-18T01:17:44;-5.80;99.90
46508;DHT22;32223;53.654;10.014;2022-12-18T01:20:12;-5.80;99.90
46508;DHT22;32223;53.654;10.014;2022-12-18T01:22:38;-5.80;99.90
46508;DHT22;32223;53.654;10.014;2022-12-18T01:25:04;-5.80;99.90
46508;DHT22;32223;53.654;10.014;2022-12-18T01:27:31;-5.90;99.90
46508;DHT22;32223;53.654;10.014;2022-12-18T01:29:56;-5.90;99.90
46508;DHT22;32223;53.654;10.014;2022-12-18T01:32:22;-6.00;99.90
46508;DHT22;32223;53.654;10.014;2022-12-18T01:34:48;-6.00;99.90
46508;DHT22;32223;53.654;10.014;2022-12-18T01:37:14;-6.00;99.90
46508;DHT22;32223;53.654;10.014;2022-12-18T01:39:39;-6.10;99.90
46508;DHT22;32223;53.654;10.014;2022-12-18T01:42:15;-6.10;99.90
46508;DHT22;32223;53.654;10.014;2022-12-18T01:44:58;-6.10;99.90
46508;DHT22;32223;53.654;10.014;2022-12-18T01:47:43;-6.10;99.90
46508;DHT22;32223;53.654;10.014;2022-12-18T01:52:43;-6.10;99.90
46508;DHT22;32223;53.654;10.014;2022-12-18T01:55:11;-6.10;99.90
46508;DHT22;32223;53.654;10.014;2022-12-18T01:57:38;-6.10;99.90
46508;DHT22;32223;53.654;10.014;2022-12-18T02:00:08;-6.00;99.90
46508;DHT22;32223;53.654;10.014;2022-12-18T02:02:35;-6.00;99.90
46508;DHT22;32223;53.654;10.014;2022-12-18T02:05:02;-6.00;99.90
46508;DHT22;32223;53.654;10.014;2022-12-18T02:07:40;-6.00;99.90
46508;DHT22;32223;53.654;10.014;2022-12-18T02:10:15;-6.00;99.90
46508;DHT22;32223;53.654;10.014;2022-12-18T02:15:32;-6.00;99.90
46508;DHT22;32223;53.654;10.014;2022-12-18T02:18:27;-5.90;99.90
46508;DHT22;32223;53.654;10.014;2022-12-18T02:20:59;-6.00;99.90
46508;DHT22;32223;53.654;10.014;2022-12-18T02:23:41;-6.00;99.90
46508;DHT22;32223;53.654;10.014;2022-12-18T02:26:34;-6.00;99.90
46508;DHT22;32223;53.654;10.014;2022-12-18T02:29:29;-6.00;99.90
46508;DHT22;32223;53.654;10.014;2022-12-18T02:31:58;-6.00;99.90
46508;DHT22;32223;53.654;10.014;2022-12-18T02:34:32;-6.00;99.90
46508;DHT22;32223;53.654;10.014;2022-12-18T02:37:01;-6.00;99.90
46508;DHT22;32223;53.654;10.014;2022-12-18T02:39:29;-6.10;99.90
46508;DHT22;32223;53.654;10.014;2022-12-18T02:41:57;-6.10;99.90
46508;DHT22;32223;53.654;10.014;2022-12-18T02:44:24;-6.10;99.90
46508;DHT22;32223;53.654;10.014;2022-12-18T02:46:52;-6.10;99.90
46508;DHT22;32223;53.654;10.014;2022-12-18T02:55:02;-6.20;99.90
46508;DHT22;32223;53.654;10.014;2022-12-18T02:57:43;-6.20;99.90
46508;DHT22;32223;53.654;10.014;2022-12-18T03:00:13;-6.20;99.90
46508;DHT22;32223;53.654;10.014;2022-12-18T03:08:03;-6.30;99.90
46508;DHT22;32223;53.654;10.014;2022-12-18T03:10:33;-6.40;99.90
46508;DHT22;32223;53.654;10.014;2022-12-18T03:13:07;-6.40;99.90
46508;DHT22;32223;53.654;10.014;2022-12-18T03:15:47;-6.40;99.90
46508;DHT22;32223;53.654;10.014;2022-12-18T03:18:17;-6.40;99.90
46508;DHT22;32223;53.654;10.014;2022-12-18T03:20:46;-6.40;99.90
46508;DHT22;32223;53.654;10.014;2022-12-18T03:23:17;-6.50;99.90
46508;DHT22;32223;53.654;10.014;2022-12-18T03:25:45;-6.50;99.90
46508;DHT22;32223;53.654;10.014;2022-12-18T03:28:15;-6.60;99.90
46508;DHT22;32223;53.654;10.014;2022-12-18T03:30:44;-6.60;99.90
46508;DHT22;32223;53.654;10.014;2022-12-18T03:33:19;-6.60;99.90
46508;DHT22;32223;53.654;10.014;2022-12-18T03:35:46;-6.60;99.90
46508;DHT22;32223;53.654;10.014;2022-12-18T03:38:12;-6.60;99.90
46508;DHT22;32223;53.654;10.014;2022-12-18T03:41:05;-6.60;99.90
46508;DHT22;32223;53.654;10.014;2022-12-18T03:48:52;-6.70;99.90
46508;DHT22;32223;53.654;10.014;2022-12-18T03:51:39;-6.70;99.90
46508;DHT22;32223;53.654;10.014;2022-12-18T03:54:07;-6.70;99.90
46508;DHT22;32223;53.654;10.014;2022-12-18T03:56:40;-6.70;99.90
46508;DHT22;32223;53.654;10.014;2022-12-18T03:59:08;-6.70;99.90
46508;DHT22;32223;53.654;10.014;2022-12-18T04:01:46;-6.70;99.90
46508;DHT22;32223;53.654;10.014;2022-12-18T04:04:13;-6.80;99.90
46508;DHT22;32223;53.654;10.014;2022-12-18T04:06:41;-6.80;99.90
46508;DHT22;32223;53.654;10.014;2022-12-18T04:09:09;-6.80;99.90
46508;DHT22;32223;53.654;10.014;2022-12-18T04:11:35;-6.80;99.90
46508;DHT22;32223;53.654;10.014;2022-12-18T04:14:00;-6.80;99.90
46508;DHT22;32223;53.654;10.014;2022-12-18T04:16:26;-6.80;99.90
46508;DHT22;32223;53.654;10.014;2022-12-18T04:18:52;-6.80;99.90
46508;DHT22;32223;53.654;10.014;2022-12-18T04:21:18;-6.80;99.90
46508;DHT22;32223;53.654;10.014;2022-12-18T04:23:44;-6.90;99.90
46508;DHT22;32223;53.654;10.014;2022-12-18T04:26:10;-6.90;99.90
46508;DHT22;32223;53.654;10.014;2022-12-18T04:28:36;-6.90;99.90
46508;DHT22;32223;53.654;10.014;2022-12-18T04:31:02;-6.90;99.90
46508;DHT22;32223;53.654;10.014;2022-12-18T04:33:28;-6.90;99.90
46508;DHT22;32223;53.654;10.014;2022-12-18T04:35:53;-6.90;99.90
46508;DHT22;32223;53.654;10.014;2022-12-18T04:38:19;-6.90;99.90
46508;DHT22;32223;53.654;10.014;2022-12-18T04:40:45;-6.90;99.90
46508;DHT22;32223;53.654;10.014;2022-12-18T04:43:10;-6.90;99.90
46508;DHT22;32223;53.654;10.014;2022-12-18T04:45:36;-6.90;99.90
46508;DHT22;32223;53.654;10.014;2022-12-18T04:48:02;-6.90;99.90
46508;DHT22;32223;53.654;10.014;2022-12-18T04:50:28;-6.90;99.90
46508;DHT22;32223;53.654;10.014;2022-12-18T04:52:54;-6.90;99.90
46508;DHT22;32223;53.654;10.014;2022-12-18T04:55:20;-6.90;99.90
46508;DHT22;32223;53.654;10.014;2022-12-18T04:57:46;-7.00;99.90
46508;DHT22;32223;53.654;10.014;2022-12-18T05:00:12;-7.00;99.90
46508;DHT22;32223;53.654;10.014;2022-12-18T05:02:38;-7.00;99.90
46508;DHT22;32223;53.654;10.014;2022-12-18T05:05:04;-7.00;99.90
46508;DHT22;32223;53.654;10.014;2022-12-18T05:07:30;-7.00;99.90
46508;DHT22;32223;53.654;10.014;2022-12-18T05:09:56;-7.00;99.90
46508;DHT22;32223;53.654;10.014;2022-12-18T05:12:24;-7.00;99.90
46508;DHT22;32223;53.654;10.014;2022-12-18T05:14:50;-7.00;99.90
46508;DHT22;32223;53.654;10.014;2022-12-18T05:17:15;-7.10;99.90
46508;DHT22;32223;53.654;10.014;2022-12-18T05:19:41;-7.10;99.90
46508;DHT22;32223;53.654;10.014;2022-12-18T05:22:11;-7.10;99.90
46508;DHT22;32223;53.654;10.014;2022-12-18T05:24:37;-7.10;99.90
46508;DHT22;32223;53.654;10.014;2022-12-18T05:27:03;-7.20;99.90
46508;DHT22;32223;53.654;10.014;2022-12-18T05:29:28;-7.20;99.90
46508;DHT22;32223;53.654;10.014;2022-12-18T05:31:54;-7.20;99.90
46508;DHT22;32223;53.654;10.014;2022-12-18T05:34:19;-7.20;99.90
46508;DHT22;32223;53.654;10.014;2022-12-18T05:36:45;-7.20;99.90
46508;DHT22;32223;53.654;10.014;2022-12-18T05:39:10;-7.20;99.90
46508;DHT22;32223;53.654;10.014;2022-12-18T05:41:36;-7.20;99.90
46508;DHT22;32223;53.654;10.014;2022-12-18T05:44:03;-7.20;99.90
46508;DHT22;32223;53.654;10.014;2022-12-18T05:46:28;-7.20;99.90
46508;DHT22;32223;53.654;10.014;2022-12-18T05:48:55;-7.20;99.90
46508;DHT22;32223;53.654;10.014;2022-12-18T05:51:21;-7.20;99.90
46508;DHT22;32223;53.654;10.014;2022-12-18T05:53:48;-7.20;99.90
46508;DHT22;32223;53.654;10.014;2022-12-18T05:56:20;-7.20;99.90
46508;DHT22;32223;53.654;10.014;2022-12-18T05:58:46;-7.30;99.90
46508;DHT22;32223;53.654;10.014;2022-12-18T06:01:21;-7.20;99.90
46508;DHT22;32223;53.654;10.014;2022-12-18T06:03:47;-7.30;99.90
46508;DHT22;32223;53.654;10.014;2022-12-18T06:08:40;-7.30;99.90
46508;DHT22;32223;53.654;10.014;2022-12-18T06:11:06;-7.30;99.90
46508;DHT22;32223;53.654;10.014;2022-12-18T06:13:31;-7.30;99.90
46508;DHT22;32223;53.654;10.014;2022-12-18T06:15:57;-7.40;99.90
46508;DHT22;32223;53.654;10.014;2022-12-18T06:18:22;-7.30;99.90
46508;DHT22;32223;53.654;10.014;2022-12-18T06:20:58;-7.30;99.90
46508;DHT22;32223;53.654;10.014;2022-12-18T06:23:25;-7.30;99.90
46508;DHT22;32223;53.654;10.014;2022-12-18T06:25:51;-7.30;99.90
46508;DHT22;32223;53.654;10.014;2022-12-18T06:28:17;-7.30;99.90
46508;DHT22;32223;53.654;10.014;2022-12-18T06:30:47;-7.30;99.90
46508;DHT22;32223;53.654;10.014;2022-12-18T06:33:14;-7.30;99.90
46508;DHT22;32223;53.654;10.014;2022-12-18T06:35:40;-7.30;99.90
46508;DHT22;32223;53.654;10.014;2022-12-18T06:38:06;-7.30;99.90
46508;DHT22;32223;53.654;10.014;2022-12-18T06:40:32;-7.30;99.90
46508;DHT22;32223;53.654;10.014;2022-12-18T06:42:58;-7.30;99.90
46508;DHT22;32223;53.654;10.014;2022-12-18T06:45:23;-7.30;99.90
46508;DHT22;32223;53.654;10.014;2022-12-18T06:47:49;-7.20;99.90
46508;DHT22;32223;53.654;10.014;2022-12-18T06:50:15;-7.30;99.90
46508;DHT22;32223;53.654;10.014;2022-12-18T06:52:41;-7.30;99.90
46508;DHT22;32223;53.654;10.014;2022-12-18T06:55:09;-7.30;99.90
46508;DHT22;32223;53.654;10.014;2022-12-18T06:57:35;-7.30;99.90
46508;DHT22;32223;53.654;10.014;2022-12-18T07:00:02;-7.30;99.90
46508;DHT22;32223;53.654;10.014;2022-12-18T07:02:28;-7.30;99.90
46508;DHT22;32223;53.654;10.014;2022-12-18T07:04:53;-7.30;99.90
46508;DHT22;32223;53.654;10.014;2022-12-18T07:07:19;-7.30;99.90
46508;DHT22;32223;53.654;10.014;2022-12-18T07:09:45;-7.30;99.90
46508;DHT22;32223;53.654;10.014;2022-12-18T07:12:10;-7.30;99.90
46508;DHT22;32223;53.654;10.014;2022-12-18T07:14:36;-7.30;99.90
46508;DHT22;32223;53.654;10.014;2022-12-18T07:17:01;-7.30;99.90
46508;DHT22;32223;53.654;10.014;2022-12-18T07:19:27;-7.30;99.90
46508;DHT22;32223;53.654;10.014;2022-12-18T07:21:52;-7.20;99.90
46508;DHT22;32223;53.654;10.014;2022-12-18T07:24:18;-7.30;99.90
46508;DHT22;32223;53.654;10.014;2022-12-18T07:26:46;-7.30;99.90
46508;DHT22;32223;53.654;10.014;2022-12-18T07:29:12;-7.20;99.90
46508;DHT22;32223;53.654;10.014;2022-12-18T07:31:38;-7.20;99.90
46508;DHT22;32223;53.654;10.014;2022-12-18T07:34:04;-7.30;99.90
46508;DHT22;32223;53.654;10.014;2022-12-18T07:36:29;-7.30;99.90
46508;DHT22;32223;53.654;10.014;2022-12-18T07:38:55;-7.20;99.90
46508;DHT22;32223;53.654;10.014;2022-12-18T07:41:21;-7.20;99.90
46508;DHT22;32223;53.654;10.014;2022-12-18T07:43:47;-7.10;99.90
46508;DHT22;32223;53.654;10.014;2022-12-18T07:46:14;-7.10;99.90
46508;DHT22;32223;53.654;10.014;2022-12-18T07:48:41;-7.20;99.90
46508;DHT22;32223;53.654;10.014;2022-12-18T07:51:08;-7.10;99.90
46508;DHT22;32223;53.654;10.014;2022-12-18T07:53:34;-7.10;99.90
46508;DHT22;32223;53.654;10.014;2022-12-18T07:56:03;-7.10;99.90
46508;DHT22;32223;53.654;10.014;2022-12-18T07:58:29;-7.10;99.90
46508;DHT22;32223;53.654;10.014;2022-12-18T08:01:09;-7.00;99.90
46508;DHT22;32223;53.654;10.014;2022-12-18T08:03:36;-7.00;99.90
46508;DHT22;32223;53.654;10.014;2022-12-18T08:06:03;-7.00;99.90
46508;DHT22;32223;53.654;10.014;2022-12-18T08:08:29;-7.00;99.90
46508;DHT22;32223;53.654;10.014;2022-12-18T08:10:56;-6.90;99.90
46508;DHT22;32223;53.654;10.014;2022-12-18T08:13:21;-6.90;99.90
46508;DHT22;32223;53.654;10.014;2022-12-18T08:15:55;-6.80;99.90
46508;DHT22;32223;53.654;10.014;2022-12-18T08:18:21;-6.80;99.90
46508;DHT22;32223;53.654;10.014;2022-12-18T08:20:47;-6.80;99.90
46508;DHT22;32223;53.654;10.014;2022-12-18T08:23:12;-6.70;99.90
46508;DHT22;32223;53.654;10.014;2022-12-18T08:25:38;-6.70;99.90
46508;DHT22;32223;53.654;10.014;2022-12-18T08:28:03;-6.70;99.90
46508;DHT22;32223;53.654;10.014;2022-12-18T08:30:29;-6.70;99.90
46508;DHT22;32223;53.654;10.014;2022-12-18T08:32:54;-6.60;99.90
46508;DHT22;32223;53.654;10.014;2022-12-18T08:35:20;-6.50;99.90
46508;DHT22;32223;53.654;10.014;2022-12-18T08:37:46;-6.50;99.90
46508;DHT22;32223;53.654;10.014;2022-12-18T08:40:11;-6.40;99.90
46508;DHT22;32223;53.654;10.014;2022-12-18T08:42:38;-6.40;99.90
46508;DHT22;32223;53.654;10.014;2022-12-18T08:45:22;-6.30;99.90
46508;DHT22;32223;53.654;10.014;2022-12-18T08:47:47;-6.30;99.90
46508;DHT22;32223;53.654;10.014;2022-12-18T08:50:13;-6.20;99.90
46508;DHT22;32223;53.654;10.014;2022-12-18T08:52:40;-6.20;99.90
46508;DHT22;32223;53.654;10.014;2022-12-18T08:55:06;-6.20;99.90
46508;DHT22;32223;53.654;10.014;2022-12-18T08:57:31;-6.10;99.90
46508;DHT22;32223;53.654;10.014;2022-12-18T08:59:57;-6.00;99.90
46508;DHT22;32223;53.654;10.014;2022-12-18T09:02:23;-6.00;99.90
46508;DHT22;32223;53.654;10.014;2022-12-18T09:04:48;-6.00;99.90
46508;DHT22;32223;53.654;10.014;2022-12-18T09:07:15;-5.90;99.90
46508;DHT22;32223;53.654;10.014;2022-12-18T09:09:41;-5.90;99.90
46508;DHT22;32223;53.654;10.014;2022-12-18T09:12:06;-5.80;99.90
46508;DHT22;32223;53.654;10.014;2022-12-18T09:14:32;-5.70;99.90
46508;DHT22;32223;53.654;10.014;2022-12-18T09:16:58;-5.70;99.90
46508;DHT22;32223;53.654;10.014;2022-12-18T09:19:23;-5.60;99.90
46508;DHT22;32223;53.654;10.014;2022-12-18T09:21:49;-5.50;99.90
46508;DHT22;32223;53.654;10.014;2022-12-18T09:24:15;-5.50;99.90
46508;DHT22;32223;53.654;10.014;2022-12-18T09:26:41;-5.40;99.90
46508;DHT22;32223;53.654;10.014;2022-12-18T09:29:07;-5.30;99.90
46508;DHT22;32223;53.654;10.014;2022-12-18T09:31:33;-5.30;99.90
46508;DHT22;32223;53.654;10.014;2022-12-18T09:33:59;-5.10;99.90
46508;DHT22;32223;53.654;10.014;2022-12-18T09:36:25;-4.80;99.90
46508;DHT22;32223;53.654;10.014;2022-12-18T09:38:50;-4.70;99.90
46508;DHT22;32223;53.654;10.014;2022-12-18T09:46:44;-4.40;99.90
46508;DHT22;32223;53.654;10.014;2022-12-18T09:49:13;-4.30;99.90
46508;DHT22;32223;53.654;10.014;2022-12-18T09:54:37;-4.30;99.90
46508;DHT22;32223;53.654;10.014;2022-12-18T09:57:04;-4.30;99.90
46508;DHT22;32223;53.654;10.014;2022-12-18T09:59:38;-4.30;99.90
46508;DHT22;32223;53.654;10.014;2022-12-18T10:04:39;-4.20;99.90
46508;DHT22;32223;53.654;10.014;2022-12-18T10:07:28;-4.10;99.90
46508;DHT22;32223;53.654;10.014;2022-12-18T10:10:22;-4.00;99.90
46508;DHT22;32223;53.654;10.014;2022-12-18T10:13:09;-3.90;99.90
46508;DHT22;32223;53.654;10.014;2022-12-18T10:15:52;-3.80;99.90
46508;DHT22;32223;53.654;10.014;2022-12-18T10:21:05;-3.80;99.90
46508;DHT22;32223;53.654;10.014;2022-12-18T10:23:55;-3.70;99.90
46508;DHT22;32223;53.654;10.014;2022-12-18T10:26:24;-3.70;99.90
46508;DHT22;32223;53.654;10.014;2022-12-18T10:28:51;-3.50;99.90
46508;DHT22;32223;53.654;10.014;2022-12-18T10:31:22;-3.50;99.90
46508;DHT22;32223;53.654;10.014;2022-12-18T10:33:48;-3.50;99.90
46508;DHT22;32223;53.654;10.014;2022-12-18T10:36:14;-3.40;99.90
46508;DHT22;32223;53.654;10.014;2022-12-18T10:38:40;-3.30;99.90
46508;DHT22;32223;53.654;10.014;2022-12-18T10:41:26;-3.20;99.90
46508;DHT22;32223;53.654;10.014;2022-12-18T10:44:16;-3.10;99.90
46508;DHT22;32223;53.654;10.014;2022-12-18T10:46:44;-3.10;99.90
46508;DHT22;32223;53.654;10.014;2022-12-18T10:49:23;-3.00;99.90
46508;DHT22;32223;53.654;10.014;2022-12-18T10:51:49;-2.90;99.90
46508;DHT22;32223;53.654;10.014;2022-12-18T10:54:19;-2.80;99.90
46508;DHT22;32223;53.654;10.014;2022-12-18T10:56:46;-2.80;99.90
46508;DHT22;32223;53.654;10.014;2022-12-18T10:59:14;-2.80;99.90
46508;DHT22;32223;53.654;10.014;2022-12-18T11:01:52;-2.80;99.90
46508;DHT22;32223;53.654;10.014;2022-12-18T11:07:08;-2.70;99.90
46508;DHT22;32223;53.654;10.014;2022-12-18T11:09:35;-2.60;99.90
46508;DHT22;32223;53.654;10.014;2022-12-18T11:12:04;-2.50;99.90
46508;DHT22;32223;53.654;10.014;2022-12-18T11:14:46;-2.50;99.90
46508;DHT22;32223;53.654;10.014;2022-12-18T11:19:56;-2.40;99.90
46508;DHT22;32223;53.654;10.014;2022-12-18T11:22:33;-2.20;99.90
46508;DHT22;32223;53.654;10.014;2022-12-18T11:25:02;-2.10;99.90
46508;DHT22;32223;53.654;10.014;2022-12-18T11:27:29;-2.00;99.90
46508;DHT22;32223;53.654;10.014;2022-12-18T11:32:43;-2.00;99.90
46508;DHT22;32223;53.654;10.014;2022-12-18T11:35:35;-2.10;99.90
46508;DHT22;32223;53.654;10.014;2022-12-18T11:40:41;-2.00;99.90
46508;DHT22;32223;53.654;10.014;2022-12-18T11:44:07;-2.00;99.90
46508;DHT22;32223;53.654;10.014;2022-12-18T11:46:13;-1.90;99.90
46508;DHT22;32223;53.654;10.014;2022-12-18T11:48:46;-1.70;99.90
46508;DHT22;32223;53.654;10.014;2022-12-18T11:51:31;-1.60;99.90
46508;DHT22;32223;53.654;10.014;2022-12-18T11:53:57;-1.40;99.90
46508;DHT22;32223;53.654;10.014;2022-12-18T11:56:32;-1.10;99.90
46508;DHT22;32223;53.654;10.014;2022-12-18T12:23:39;-0.90;99.90
46508;DHT22;32223;53.654;10.014;2022-12-18T12:26:15;-1.00;99.90
46508;DHT22;32223;53.654;10.014;2022-12-18T12:34:12;-1.40;99.90
46508;DHT22;32223;53.654;10.014;2022-12-18T12:39:18;-1.50;99.90
46508;DHT22;32223;53.654;10.014;2022-12-18T12:41:46;-1.40;99.90
46508;DHT22;32223;53.654;10.014;2022-12-18T12:44:39;-1.40;99.90
46508;DHT22;32223;53.654;10.014;2022-12-18T12:47:18;-1.30;99.90
46508;DHT22;32223;53.654;10.014;2022-12-18T12:49:46;-1.00;99.90
46508;DHT22;32223;53.654;10.014;2022-12-18T12:54:55;0.40;99.90
46508;DHT22;32223;53.654;10.014;2022-12-18T13:08:29;0.40;99.90
46508;DHT22;32223;53.654;10.014;2022-12-18T13:10:56;0.10;99.90
46508;DHT22;32223;53.654;10.014;2022-12-18T13:13:52;-0.20;99.90
46508;DHT22;32223;53.654;10.014;2022-12-18T13:16:23;0.30;99.90
46508;DHT22;32223;53.654;10.014;2022-12-18T13:18:54;0.60;99.90
46508;DHT22;32223;53.654;10.014;2022-12-18T13:21:29;0.90;99.90
46508;DHT22;32223;53.654;10.014;2022-12-18T13:23:56;0.70;99.90
46508;DHT22;32223;53.654;10.014;2022-12-18T13:26:39;0.40;99.90
46508;DHT22;32223;53.654;10.014;2022-12-18T13:29:05;0.10;99.90
46508;DHT22;32223;53.654;10.014;2022-12-18T13:34:26;-0.50;99.90
46508;DHT22;32223;53.654;10.014;2022-12-18T13:36:54;-0.70;99.90
46508;DHT22;32223;53.654;10.014;2022-12-18T13:44:39;-1.30;99.90
46508;DHT22;32223;53.654;10.014;2022-12-18T13:47:44;-1.50;99.90
46508;DHT22;32223;53.654;10.014;2022-12-18T13:50:21;-1.70;99.90
46508;DHT22;32223;53.654;10.014;2022-12-18T13:52:48;-1.80;99.90
46508;DHT22;32223;53.654;10.014;2022-12-18T13:55:19;-1.90;99.90
46508;DHT22;32223;53.654;10.014;2022-12-18T13:57:46;-2.00;99.90
46508;DHT22;32223;53.654;10.014;2022-12-18T14:00:26;-2.00;99.90
46508;DHT22;32223;53.654;10.014;2022-12-18T14:02:53;-2.20;99.90
46508;DHT22;32223;53.654;10.014;2022-12-18T14:05:28;-2.30;99.90
46508;DHT22;32223;53.654;10.014;2022-12-18T14:07:59;-2.30;99.90
46508;DHT22;32223;53.654;10.014;2022-12-18T14:10:26;-2.30;99.90
46508;DHT22;32223;53.654;10.014;2022-12-18T14:12:51;-2.40;99.90
46508;DHT22;32223;53.654;10.014;2022-12-18T14:15:33;-2.50;99.90
46508;DHT22;32223;53.654;10.014;2022-12-18T14:18:01;-2.60;99.90
46508;DHT22;32223;53.654;10.014;2022-12-18T14:20:31;-2.70;99.90
46508;DHT22;32223;53.654;10.014;2022-12-18T14:22:57;-2.70;99.90
46508;DHT22;32223;53.654;10.014;2022-12-18T14:25:25;-2.70;99.90
46508;DHT22;32223;53.654;10.014;2022-12-18T14:30:51;-2.80;99.90
46508;DHT22;32223;53.654;10.014;2022-12-18T14:36:04;-2.90;99.90
46508;DHT22;32223;53.654;10.014;2022-12-18T14:38:32;-3.00;99.90
46508;DHT22;32223;53.654;10.014;2022-12-18T14:43:33;-3.10;99.90
46508;DHT22;32223;53.654;10.014;2022-12-18T14:45:59;-3.30;99.90
46508;DHT22;32223;53.654;10.014;2022-12-18T14:48:32;-3.30;99.90
46508;DHT22;32223;53.654;10.014;2022-12-18T14:51:24;-3.30;99.90
46508;DHT22;32223;53.654;10.014;2022-12-18T14:54:00;-3.30;99.90
46508;DHT22;32223;53.654;10.014;2022-12-18T14:56:29;-3.40;99.90
46508;DHT22;32223;53.654;10.014;2022-12-18T14:59:12;-3.40;99.90
46508;DHT22;32223;53.654;10.014;2022-12-18T15:02:10;-3.40;99.90
46508;DHT22;32223;53.654;10.014;2022-12-18T15:04:41;-3.50;99.90
46508;DHT22;32223;53.654;10.014;2022-12-18T15:07:16;-3.50;99.90
46508;DHT22;32223;53.654;10.014;2022-12-18T15:12:41;-3.60;99.90
46508;DHT22;32223;53.654;10.014;2022-12-18T15:17:59;-3.70;99.90
46508;DHT22;32223;53.654;10.014;2022-12-18T15:20:25;-3.70;99.90
46508;DHT22;32223;53.654;10.014;2022-12-18T15:22:51;-3.70;99.90
46508;DHT22;32223;53.654;10.014;2022-12-18T15:25:30;-3.80;99.90
46508;DHT22;32223;53.654;10.014;2022-12-18T15:27:57;-3.80;99.90
46508;DHT22;32223;53.654;10.014;2022-12-18T15:30:24;-3.80;99.90
46508;DHT22;32223;53.654;10.014;2022-12-18T15:32:51;-3.90;99.90
46508;DHT22;32223;53.654;10.014;2022-12-18T15:35:24;-3.90;99.90
46508;DHT22;32223;53.654;10.014;2022-12-18T15:37:51;-3.80;99.90
46508;DHT22;32223;53.654;10.014;2022-12-18T15:40:22;-3.80;99.90
46508;DHT22;32223;53.654;10.014;2022-12-18T15:42:50;-3.80;99.90
46508;DHT22;32223;53.654;10.014;2022-12-18T15:45:35;-3.80;99.90
46508;DHT22;32223;53.654;10.014;2022-12-18T15:48:00;-3.80;99.90
46508;DHT22;32223;53.654;10.014;2022-12-18T15:50:26;-3.80;99.90
46508;DHT22;32223;53.654;10.014;2022-12-18T15:52:53;-3.80;99.90
46508;DHT22;32223;53.654;10.014;2022-12-18T15:55:22;-3.80;99.90
46508;DHT22;32223;53.654;10.014;2022-12-18T15:58:07;-3.80;99.90
46508;DHT22;32223;53.654;10.014;2022-12-18T16:00:34;-3.70;99.90
46508;DHT22;32223;53.654;10.014;2022-12-18T16:03:00;-3.70;99.90
46508;DHT22;32223;53.654;10.014;2022-12-18T16:05:27;-3.70;99.90
46508;DHT22;32223;53.654;10.014;2022-12-18T16:07:53;-3.70;99.90
46508;DHT22;32223;53.654;10.014;2022-12-18T16:10:19;-3.70;99.90
46508;DHT22;32223;53.654;10.014;2022-12-18T16:12:45;-3.60;99.90
46508;DHT22;32223;53.654;10.014;2022-12-18T16:15:13;-3.70;99.90
46508;DHT22;32223;53.654;10.014;2022-12-18T16:17:41;-3.70;99.90
46508;DHT22;32223;53.654;10.014;2022-12-18T16:20:19;-3.80;99.90
46508;DHT22;32223;53.654;10.014;2022-12-18T16:22:46;-3.80;99.90
46508;DHT22;32223;53.654;10.014;2022-12-18T16:25:26;-3.80;99.90
46508;DHT22;32223;53.654;10.014;2022-12-18T16:27:53;-3.80;99.90
46508;DHT22;32223;53.654;10.014;2022-12-18T16:30:25;-3.80;99.90
46508;DHT22;32223;53.654;10.014;2022-12-18T16:32:53;-3.90;99.90
46508;DHT22;32223;53.654;10.014;2022-12-18T16:35:19;-3.90;99.90
46508;DHT22;32223;53.654;10.014;2022-12-18T16:37:44;-4.00;99.90
46508;DHT22;32223;53.654;10.014;2022-12-18T16:40:13;-4.00;99.90
46508;DHT22;32223;53.654;10.014;2022-12-18T16:42:40;-4.00;99.90
46508;DHT22;32223;53.654;10.014;2022-12-18T16:45:08;-4.00;99.90
46508;DHT22;32223;53.654;10.014;2022-12-18T16:47:34;-4.10;99.90
46508;DHT22;32223;53.654;10.014;2022-12-18T16:50:00;-4.10;99.90
46508;DHT22;32223;53.654;10.014;2022-12-18T16:52:26;-4.10;99.90
46508;DHT22;32223;53.654;10.014;2022-12-18T16:54:51;-4.10;99.90
46508;DHT22;32223;53.654;10.014;2022-12-18T16:57:19;-4.10;99.90
46508;DHT22;32223;53.654;10.014;2022-12-18T16:59:45;-4.20;99.90
46508;DHT22;32223;53.654;10.014;2022-12-18T17:02:17;-4.20;99.90
46508;DHT22;32223;53.654;10.014;2022-12-18T17:04:44;-4.20;99.90
46508;DHT22;32223;53.654;10.014;2022-12-18T17:07:10;-4.20;99.90
46508;DHT22;32223;53.654;10.014;2022-12-18T17:09:36;-4.20;99.90
46508;DHT22;32223;53.654;10.014;2022-12-18T17:12:02;-4.20;99.90
46508;DHT22;32223;53.654;10.014;2022-12-18T17:14:28;-4.20;99.90
46508;DHT22;32223;53.654;10.014;2022-12-18T17:16:55;-4.20;99.90
46508;DHT22;32223;53.654;10.014;2022-12-18T17:19:23;-4.20;99.90
46508;DHT22;32223;53.654;10.014;2022-12-18T17:21:50;-4.20;99.90
46508;DHT22;32223;53.654;10.014;2022-12-18T17:24:16;-4.20;99.90
46508;DHT22;32223;53.654;10.014;2022-12-18T17:26:42;-4.20;99.90
46508;DHT22;32223;53.654;10.014;2022-12-18T17:29:12;-4.20;99.90